Key West, FL

05:53 PM EDT am 28. April 2017 (GMT -0400)
Key West High School WeatherSTEM | | Change Station

Höhe 0 ft 24.55 °N, 81.78 °W | Updated 2 minutes ago

Scattered Clouds
Teils Wolkig
82.9 °F
gefühlte 90 °F
N
16.0
Wind Wechselnd Wind aus Ost

Heute
Max. -- | schwach -- °F
--% Regenrisiko
Gestern
Max. -- | schwach -- °F
Precip. -- inch
Druck 30.01 inch
Sichtweite 10.0 Meilen
Wolken Teils Wolkig 1600 ft
Hitzeindex 90 °F
Taupunkt 75 °F
Feuchtigkeit 77%
Regen 0.00 inch
Schneehöhe Nicht verfügbar..
6:54 AM 7:55 PM
Erstes Viertel, 9% visible
METAR KEYW 282053Z 10016KT 10SM SCT016 28/24 A3000 RMK AO2 SLP160 T02830239 58013
Druck 30.01 inch
Sichtweite 10.0 Meilen
Wolken Teils Wolkig 1600 ft
Hitzeindex 90 °F
Taupunkt 75 °F
Feuchtigkeit 77%
Regen 0.00 inch
Schneehöhe Nicht verfügbar..
6:54 AM 7:55 PM
Erstes Viertel, 9% visible
METAR KEYW 282053Z 10016KT 10SM SCT016 28/24 A3000 RMK AO2 SLP160 T02830239 58013

Get Severe Weather Alerts

Thanks for signing up!

Be on the lookout for a verification email in your inbox.

You'll start receiving the daily forecast at 8 AM.

×

10-Day Weather Forecast

Almanac

Astronomie

Apr. 28, 2017 Aufgang Untergang
Genaue Zeit
Bürgerliche Dämmerung
Nautische Dämmerung
Astronomische Dämmerung
Mond
Länge des sichtbaren Lichts
Tageslänge
Tomorrow will be .
, % of the Moon is Illuminated

Heutige Rekorde

State Highs State Lows

Community

WunderPhotos

WunderBlog® & News

Nearby

Luftqualität

  Luftqualität LQ Index Schadstoff
Not available.

Schneehöhe

Station Depth Höhe

Erdbebenaktivität

Stadt Distance Mag. Time & Date
Minimum magnitude displayed is 2.5.

küstennahe Wassertemperaturen

Ort Temperatur

Stations

Wetterstationen in der Umgebung

Stationsstandort Temp. Windchill Taupunkt Feuchtigkeit Wind Precip. Höhe Aktualisiert Art
                   

Watches & Warnings

There are currently no watches in effect.